createdAt,value
2023-04-01T00:01:43.873Z,9.18
2023-04-01T00:04:10.602Z,9.20
2023-04-01T00:06:37.229Z,9.18
2023-04-01T00:09:04.046Z,9.16
2023-04-01T00:11:33.437Z,9.17
2023-04-01T00:14:00.794Z,9.19
2023-04-01T00:16:28.628Z,9.17
2023-04-01T00:18:55.450Z,9.19
2023-04-01T00:21:23.305Z,9.21
2023-04-01T00:23:51.665Z,9.22
2023-04-01T00:26:21.387Z,9.18
2023-04-01T00:28:48.592Z,9.19
2023-04-01T00:31:15.587Z,9.19
2023-04-01T00:33:42.497Z,9.20
2023-04-01T00:36:14.296Z,9.14
2023-04-01T00:38:42.756Z,9.20
2023-04-01T00:41:15.473Z,9.17
2023-04-01T00:43:43.080Z,9.15
2023-04-01T00:46:09.822Z,9.11
2023-04-01T00:48:40.591Z,9.14
2023-04-01T00:51:15.237Z,9.15
2023-04-01T00:53:48.152Z,9.13
2023-04-01T00:56:30.130Z,9.12
2023-04-01T00:59:02.660Z,9.13
2023-04-01T01:01:31.621Z,9.07
2023-04-01T01:03:58.517Z,9.12
2023-04-01T01:06:48.055Z,9.12
2023-04-01T01:09:30.409Z,9.13
2023-04-01T01:12:07.770Z,9.13
2023-04-01T01:15:08.216Z,9.12
2023-04-01T01:18:08.588Z,9.13
2023-04-01T01:20:49.998Z,9.11
2023-04-01T01:23:53.782Z,9.08
2023-04-01T01:26:31.417Z,9.08
2023-04-01T01:29:19.496Z,9.02
2023-04-01T01:32:00.417Z,9.02
2023-04-01T01:34:47.373Z,8.96
2023-04-01T01:37:22.899Z,8.91
2023-04-01T01:39:57.548Z,8.97
2023-04-01T01:42:29.898Z,8.95
2023-04-01T01:45:00.834Z,8.88
2023-04-01T01:47:29.597Z,8.92
2023-04-01T01:49:57.015Z,8.90
2023-04-01T01:52:24.593Z,8.86
2023-04-01T01:54:56.500Z,8.90
2023-04-01T01:57:29.065Z,8.86
2023-04-01T02:00:03.089Z,8.87
2023-04-01T02:02:33.299Z,8.86
2023-04-01T02:05:00.757Z,8.83
2023-04-01T02:07:36.903Z,8.85
2023-04-01T02:10:05.022Z,8.78
2023-04-01T02:12:32.173Z,8.82
2023-04-01T02:15:13.275Z,8.83
2023-04-01T02:17:44.907Z,8.80
2023-04-01T02:20:20.299Z,8.80
2023-04-01T02:22:55.848Z,8.70
2023-04-01T02:25:29.873Z,8.82
2023-04-01T02:27:59.279Z,8.83
2023-04-01T02:30:30.987Z,8.74
2023-04-01T02:32:59.985Z,8.82
2023-04-01T02:35:27.581Z,8.81
2023-04-01T02:37:56.990Z,8.78
2023-04-01T02:40:23.928Z,8.79
2023-04-01T02:42:52.986Z,8.81
2023-04-01T02:45:20.541Z,8.78
2023-04-01T02:47:49.874Z,8.80
2023-04-01T02:50:16.607Z,8.73
2023-04-01T02:52:43.108Z,8.70
2023-04-01T02:55:10.205Z,8.77
2023-04-01T02:57:36.937Z,8.75
2023-04-01T03:00:05.576Z,8.76
2023-04-01T03:02:32.246Z,8.78
2023-04-01T03:04:58.871Z,8.77
2023-04-01T03:07:25.415Z,8.75
2023-04-01T03:09:52.078Z,8.71
2023-04-01T03:12:18.703Z,8.78
2023-04-01T03:14:45.347Z,8.68
2023-04-01T03:17:14.899Z,8.73
2023-04-01T03:19:41.554Z,8.65
2023-04-01T03:22:11.052Z,8.69
2023-04-01T03:24:39.664Z,8.65
2023-04-01T03:27:10.259Z,8.62
2023-04-01T03:29:37.005Z,8.55
2023-04-01T03:32:03.826Z,8.60
2023-04-01T03:34:32.017Z,8.71
2023-04-01T03:36:59.237Z,8.67
2023-04-01T03:39:26.309Z,8.68
2023-04-01T03:41:57.209Z,8.69
2023-04-01T03:44:25.600Z,8.66
2023-04-01T03:46:52.643Z,8.65
2023-04-01T03:49:19.527Z,8.62
2023-04-01T03:51:46.226Z,8.63
2023-04-01T03:54:13.599Z,8.54
2023-04-01T03:56:40.439Z,8.59
2023-04-01T03:59:10.289Z,8.62
2023-04-01T04:01:38.157Z,8.61
2023-04-01T04:04:05.742Z,8.64
2023-04-01T04:06:34.431Z,8.57
2023-04-01T04:09:01.255Z,8.63
2023-04-01T04:11:27.939Z,8.57
2023-04-01T04:13:57.211Z,8.57
2023-04-01T04:16:24.862Z,8.59
2023-04-01T04:18:52.397Z,8.57
2023-04-01T04:21:19.100Z,8.59
2023-04-01T04:23:46.182Z,8.53
2023-04-01T04:26:15.343Z,8.54
2023-04-01T04:28:42.519Z,8.56
2023-04-01T04:31:10.511Z,8.57
2023-04-01T04:33:37.457Z,8.55
2023-04-01T04:36:05.483Z,8.56
2023-04-01T04:38:32.980Z,8.50
2023-04-01T04:41:02.044Z,8.41
2023-04-01T04:43:30.484Z,8.44
2023-04-01T04:45:57.159Z,8.40
2023-04-01T04:48:23.996Z,8.41
2023-04-01T04:50:51.633Z,8.52
2023-04-01T04:53:19.879Z,8.40
2023-04-01T04:55:48.109Z,8.41
2023-04-01T04:58:14.805Z,8.53
2023-04-01T05:00:41.462Z,8.50
2023-04-01T05:03:10.400Z,8.43
2023-04-01T05:05:37.453Z,8.52
2023-04-01T05:08:05.005Z,8.46
2023-04-01T05:10:33.280Z,8.35
2023-04-01T05:13:00.405Z,8.51
2023-04-01T05:15:27.010Z,8.51
2023-04-01T05:17:53.777Z,8.48
2023-04-01T05:20:21.771Z,8.52
2023-04-01T05:22:51.262Z,8.50
2023-04-01T05:25:17.854Z,8.48
2023-04-01T05:27:44.373Z,8.50
2023-04-01T05:30:13.055Z,8.48
2023-04-01T05:32:41.438Z,8.41
2023-04-01T05:35:09.873Z,8.46
2023-04-01T05:37:38.789Z,8.49
2023-04-01T05:40:07.015Z,8.52
2023-04-01T05:42:36.096Z,8.51
2023-04-01T05:45:04.428Z,8.56
2023-04-01T05:47:31.239Z,8.56
2023-04-01T05:50:01.590Z,8.53
2023-04-01T05:52:28.306Z,8.50
2023-04-01T05:54:55.106Z,8.52
2023-04-01T05:57:22.152Z,8.55
2023-04-01T05:59:49.200Z,8.52
2023-04-01T06:02:23.909Z,8.50
2023-04-01T06:04:55.316Z,8.62
2023-04-01T06:07:22.012Z,8.66
2023-04-01T06:09:48.647Z,8.62
2023-04-01T06:12:38.283Z,8.67
2023-04-01T06:15:12.813Z,8.70
2023-04-01T06:17:53.313Z,8.69
2023-04-01T06:20:40.155Z,8.71
2023-04-01T06:23:28.223Z,8.74
2023-04-01T06:26:03.965Z,8.77
2023-04-01T06:29:02.513Z,8.64
2023-04-01T06:31:44.298Z,8.67
2023-04-01T06:34:59.956Z,8.66
2023-04-01T06:38:07.077Z,8.65
2023-04-01T06:40:58.324Z,8.70
2023-04-01T06:43:45.175Z,8.72
2023-04-01T06:46:13.418Z,8.74
2023-04-01T06:48:51.809Z,8.75
2023-04-01T06:51:33.278Z,8.72
2023-04-01T06:54:20.729Z,8.71
2023-04-01T06:56:51.858Z,8.74
2023-04-01T06:59:30.941Z,8.75
2023-04-01T07:02:11.950Z,8.80
2023-04-01T07:04:49.418Z,8.78
2023-04-01T07:07:41.859Z,8.79
2023-04-01T07:10:21.047Z,8.80
2023-04-01T07:12:58.549Z,8.75
2023-04-01T07:15:49.377Z,8.81
2023-04-01T07:18:45.349Z,8.80
2023-04-01T07:21:26.375Z,8.83
2023-04-01T07:23:57.681Z,8.83
2023-04-01T07:26:26.076Z,8.82
2023-04-01T07:28:54.186Z,8.84
2023-04-01T07:31:45.700Z,8.81
2023-04-01T07:34:32.222Z,8.72
2023-04-01T07:37:19.291Z,8.80
2023-04-01T07:39:57.818Z,8.88
2023-04-01T07:42:39.319Z,8.87
2023-04-01T07:45:20.932Z,8.73
2023-04-01T07:48:24.634Z,8.87
2023-04-01T07:51:07.451Z,8.99
2023-04-01T07:53:50.890Z,9.00
2023-04-01T07:56:35.208Z,9.01
2023-04-01T07:59:19.664Z,8.99
2023-04-01T08:02:36.884Z,8.97
2023-04-01T08:05:20.814Z,8.93
2023-04-01T08:08:11.755Z,8.89
2023-04-01T08:10:41.086Z,8.96
2023-04-01T08:13:10.456Z,8.93
2023-04-01T08:15:36.960Z,8.99
2023-04-01T08:18:18.922Z,9.15
2023-04-01T08:20:57.310Z,9.04
2023-04-01T08:23:29.388Z,9.03
2023-04-01T08:26:03.892Z,9.04
2023-04-01T08:28:42.157Z,9.08
2023-04-01T08:31:08.604Z,9.13
2023-04-01T08:33:35.473Z,9.12
2023-04-01T08:36:10.685Z,9.10
2023-04-01T08:38:54.454Z,9.04
2023-04-01T08:41:38.107Z,9.15
2023-04-01T08:44:26.403Z,9.13
2023-04-01T08:47:14.754Z,9.09
2023-04-01T08:50:23.714Z,9.04
2023-04-01T08:52:56.696Z,9.00
2023-04-01T08:55:27.432Z,9.03
2023-04-01T08:58:12.197Z,9.01
2023-04-01T09:01:28.177Z,8.99
2023-04-01T09:04:13.258Z,9.05
2023-04-01T09:06:51.762Z,9.20
2023-04-01T09:09:45.972Z,9.25
2023-04-01T09:12:47.007Z,9.33
2023-04-01T09:15:35.618Z,9.31
2023-04-01T09:18:02.464Z,9.35
2023-04-01T09:20:47.796Z,9.45
2023-04-01T09:23:30.598Z,9.47
2023-04-01T09:26:16.036Z,9.51
2023-04-01T09:29:20.202Z,9.44
2023-04-01T09:32:12.523Z,9.44
2023-04-01T09:35:12.380Z,9.47
2023-04-01T09:38:01.598Z,9.45
2023-04-01T09:40:55.657Z,9.57
2023-04-01T09:43:22.201Z,9.71
2023-04-01T09:46:15.097Z,9.65
2023-04-01T09:48:44.318Z,9.65
2023-04-01T09:51:48.036Z,10.00
2023-04-01T09:54:14.475Z,10.17
2023-04-01T09:57:01.300Z,10.02
2023-04-01T09:59:43.155Z,9.93
2023-04-01T10:02:24.599Z,9.59
2023-04-01T10:05:19.322Z,9.52
2023-04-01T10:08:12.034Z,9.57
2023-04-01T10:11:10.595Z,9.59
2023-04-01T10:14:08.377Z,9.71
2023-04-01T10:16:59.804Z,9.83
2023-04-01T10:19:56.843Z,10.10
2023-04-01T10:22:31.035Z,10.08
2023-04-01T10:25:10.172Z,10.47
2023-04-01T10:27:42.668Z,10.38
2023-04-01T10:30:43.033Z,10.29
2023-04-01T10:33:51.327Z,10.05
2023-04-01T10:36:46.484Z,10.00
2023-04-01T10:39:39.841Z,10.09
2023-04-01T10:42:18.680Z,10.21
2023-04-01T10:45:27.166Z,10.28
2023-04-01T10:48:24.092Z,10.26
2023-04-01T10:51:17.400Z,10.14
2023-04-01T10:54:04.833Z,10.14
2023-04-01T10:56:36.349Z,10.22
2023-04-01T10:59:21.050Z,10.23
2023-04-01T11:02:09.982Z,10.22
2023-04-01T11:04:59.475Z,10.10
2023-04-01T11:08:03.142Z,10.05
2023-04-01T11:10:56.777Z,10.12
2023-04-01T11:13:29.125Z,10.23
2023-04-01T11:16:23.138Z,10.05
2023-04-01T11:19:31.032Z,9.94
2023-04-01T11:22:31.411Z,10.03
2023-04-01T11:25:20.789Z,10.02
2023-04-01T11:28:02.249Z,9.90
2023-04-01T11:31:03.356Z,9.92
2023-04-01T11:33:37.788Z,9.91
2023-04-01T11:36:29.367Z,9.88
2023-04-01T11:38:59.200Z,9.90
2023-04-01T11:41:53.053Z,9.78
2023-04-01T11:44:23.591Z,9.71
2023-04-01T11:47:01.181Z,9.82
2023-04-01T11:49:46.153Z,9.87
2023-04-01T11:52:18.647Z,9.84
2023-04-01T11:55:13.577Z,10.12
2023-04-01T11:57:57.944Z,9.94
2023-04-01T12:00:48.417Z,9.91
2023-04-01T12:03:46.310Z,10.01
2023-04-01T12:06:37.042Z,10.05
2023-04-01T12:09:34.532Z,10.01
2023-04-01T12:12:16.057Z,9.91
2023-04-01T12:14:56.828Z,9.83
2023-04-01T12:17:29.160Z,9.66
2023-04-01T12:20:14.171Z,9.73
2023-04-01T12:23:48.702Z,9.83
2023-04-01T12:26:40.480Z,9.68
2023-04-01T12:29:26.575Z,9.79
2023-04-01T12:32:16.413Z,9.75
2023-04-01T12:35:06.669Z,9.68
2023-04-01T12:37:51.735Z,9.73
2023-04-01T12:40:36.053Z,10.11
2023-04-01T12:43:44.297Z,10.01
2023-04-01T12:46:16.577Z,9.89
2023-04-01T12:49:14.369Z,9.76
2023-04-01T12:51:59.279Z,9.80
2023-04-01T12:54:49.148Z,9.89
2023-04-01T12:57:23.292Z,9.93
2023-04-01T13:00:04.850Z,10.01
2023-04-01T13:02:47.218Z,10.00
2023-04-01T13:05:55.895Z,10.15
2023-04-01T13:08:48.880Z,10.28
2023-04-01T13:11:27.236Z,10.24
2023-04-01T13:14:11.890Z,10.13
2023-04-01T13:17:17.599Z,10.06
2023-04-01T13:20:04.361Z,9.89
2023-04-01T13:22:52.622Z,10.05
2023-04-01T13:25:48.301Z,10.22
2023-04-01T13:28:27.435Z,10.02
2023-04-01T13:31:15.213Z,9.88
2023-04-01T13:33:58.625Z,9.71
2023-04-01T13:36:27.864Z,9.74
2023-04-01T13:39:09.576Z,9.87
2023-04-01T13:42:17.868Z,9.90
2023-04-01T13:44:48.559Z,9.73
2023-04-01T13:47:36.429Z,9.82
2023-04-01T13:50:27.278Z,9.51
2023-04-01T13:53:22.532Z,9.58
2023-04-01T13:56:14.396Z,9.46
2023-04-01T13:58:47.253Z,9.49
2023-04-01T14:01:18.667Z,9.46
2023-04-01T14:04:07.409Z,9.49
2023-04-01T14:07:14.328Z,9.41
2023-04-01T14:10:01.676Z,9.42
2023-04-01T14:12:37.312Z,9.40
2023-04-01T14:15:33.472Z,9.34
2023-04-01T14:18:51.142Z,9.40
2023-04-01T14:21:56.014Z,9.44
2023-04-01T14:24:59.131Z,9.58
2023-04-01T14:27:36.771Z,9.69
2023-04-01T14:30:18.614Z,9.71
2023-04-01T14:33:00.733Z,9.60
2023-04-01T14:35:54.436Z,9.57
2023-04-01T14:38:28.509Z,9.69
2023-04-01T14:41:18.075Z,9.70
2023-04-01T14:44:16.502Z,9.68
2023-04-01T14:46:55.062Z,9.62
2023-04-01T14:49:36.324Z,9.67
2023-04-01T14:52:23.020Z,9.57
2023-04-01T14:54:51.894Z,9.54
2023-04-01T14:57:32.574Z,9.52
2023-04-01T15:00:05.181Z,9.57
2023-04-01T15:02:51.803Z,9.48
2023-04-01T15:05:41.803Z,9.33
2023-04-01T15:08:15.577Z,9.38
2023-04-01T15:10:42.077Z,9.43
2023-04-01T15:13:30.647Z,9.48
2023-04-01T15:16:35.953Z,9.49
2023-04-01T15:19:40.239Z,9.53
2023-04-01T15:22:27.025Z,9.56
2023-04-01T15:25:31.150Z,9.47
2023-04-01T15:28:19.220Z,9.41
2023-04-01T15:30:57.802Z,9.35
2023-04-01T15:33:43.037Z,9.43
2023-04-01T15:36:54.480Z,9.51
2023-04-01T15:39:48.499Z,9.52
2023-04-01T15:42:33.020Z,9.49
2023-04-01T15:45:16.212Z,9.46
2023-04-01T15:47:55.477Z,9.29
2023-04-01T15:50:21.941Z,9.26
2023-04-01T15:53:10.662Z,9.21
2023-04-01T15:55:49.218Z,9.19
2023-04-01T15:58:37.455Z,9.21
2023-04-01T16:01:32.435Z,9.17
2023-04-01T16:04:22.398Z,9.26
2023-04-01T16:07:10.464Z,9.31
2023-04-01T16:09:59.382Z,9.18
2023-04-01T16:13:01.226Z,9.11
2023-04-01T16:15:39.953Z,9.12
2023-04-01T16:18:17.339Z,9.00
2023-04-01T16:21:01.482Z,8.98
2023-04-01T16:23:52.512Z,8.94
2023-04-01T16:26:40.328Z,8.94
2023-04-01T16:29:56.843Z,8.93
2023-04-01T16:32:42.666Z,8.96
2023-04-01T16:35:19.259Z,8.89
2023-04-01T16:37:54.326Z,8.79
2023-04-01T16:40:44.444Z,8.78
2023-04-01T16:43:20.969Z,8.70
2023-04-01T16:46:06.614Z,8.69
2023-04-01T16:49:01.831Z,8.64
2023-04-01T16:52:04.791Z,8.61
2023-04-01T16:54:59.299Z,8.59
2023-04-01T16:57:44.876Z,8.57
2023-04-01T17:00:37.358Z,8.56
2023-04-01T17:03:18.611Z,8.57
2023-04-01T17:05:53.748Z,8.55
2023-04-01T17:08:30.102Z,8.54
2023-04-01T17:11:14.896Z,8.54
2023-04-01T17:14:00.581Z,8.54
2023-04-01T17:16:33.104Z,8.57
2023-04-01T17:19:09.130Z,8.55
2023-04-01T17:21:52.837Z,8.58
2023-04-01T17:24:28.164Z,8.56
2023-04-01T17:27:17.856Z,8.56
2023-04-01T17:30:16.390Z,8.58
2023-04-01T17:32:57.492Z,8.57
2023-04-01T17:35:32.740Z,8.52
2023-04-01T17:38:30.812Z,8.51
2023-04-01T17:41:28.443Z,8.56
2023-04-01T17:44:19.600Z,8.49
2023-04-01T17:46:46.219Z,8.46
2023-04-01T17:49:30.522Z,8.44
2023-04-01T17:52:29.989Z,8.45
2023-04-01T17:55:08.734Z,8.46
2023-04-01T17:57:55.739Z,8.47
2023-04-01T18:00:52.934Z,8.47
2023-04-01T18:03:58.066Z,8.47
2023-04-01T18:06:24.670Z,8.45
2023-04-01T18:09:06.016Z,8.42
2023-04-01T18:11:41.056Z,8.41
2023-04-01T18:14:41.666Z,8.42
2023-04-01T18:17:17.038Z,8.44
2023-04-01T18:20:09.652Z,8.41
2023-04-01T18:22:54.972Z,8.42
2023-04-01T18:25:45.188Z,8.41
2023-04-01T18:28:45.099Z,8.41
2023-04-01T18:31:24.893Z,8.39
2023-04-01T18:33:54.169Z,8.40
2023-04-01T18:36:43.153Z,8.37
2023-04-01T18:39:16.643Z,8.39
2023-04-01T18:42:01.452Z,8.41
2023-04-01T18:44:51.846Z,8.41
2023-04-01T18:47:31.449Z,8.37
2023-04-01T18:50:22.811Z,8.41
2023-04-01T18:53:11.752Z,8.42
2023-04-01T18:55:44.074Z,8.40
2023-04-01T18:58:23.432Z,8.42
2023-04-01T19:01:02.136Z,8.41
2023-04-01T19:04:01.515Z,8.42
2023-04-01T19:06:42.420Z,8.41
2023-04-01T19:09:25.305Z,8.40
2023-04-01T19:12:11.018Z,8.43
2023-04-01T19:14:45.949Z,8.43
2023-04-01T19:17:34.040Z,8.45
2023-04-01T19:20:13.216Z,8.44
2023-04-01T19:22:49.023Z,8.44
2023-04-01T19:25:33.607Z,8.46
2023-04-01T19:28:37.702Z,8.46
2023-04-01T19:31:19.942Z,8.45
2023-04-01T19:34:20.540Z,8.46
2023-04-01T19:36:57.691Z,8.43
2023-04-01T19:39:44.168Z,8.45
2023-04-01T19:42:36.318Z,8.45
2023-04-01T19:45:14.865Z,8.47
2023-04-01T19:47:41.593Z,8.47
2023-04-01T19:51:03.724Z,8.49
2023-04-01T19:53:52.692Z,8.48
2023-04-01T19:56:22.743Z,8.49
2023-04-01T19:59:03.034Z,8.44
2023-04-01T20:01:54.591Z,8.48
2023-04-01T20:04:37.494Z,8.44
2023-04-01T20:07:24.476Z,8.47
2023-04-01T20:10:11.532Z,8.49
2023-04-01T20:13:09.890Z,8.48
2023-04-01T20:15:48.559Z,8.42
2023-04-01T20:18:21.493Z,8.36
2023-04-01T20:21:02.313Z,8.45
2023-04-01T20:23:41.056Z,8.45
2023-04-01T20:26:12.955Z,8.42
2023-04-01T20:28:42.686Z,8.42
2023-04-01T20:31:32.125Z,8.37
2023-04-01T20:34:34.160Z,8.38
2023-04-01T20:37:16.657Z,8.40
2023-04-01T20:40:01.707Z,8.40
2023-04-01T20:42:42.501Z,8.35
2023-04-01T20:45:15.553Z,8.37
2023-04-01T20:48:00.161Z,8.34
2023-04-01T20:50:31.725Z,8.29
2023-04-01T20:53:11.959Z,8.34
2023-04-01T20:55:47.559Z,8.33
2023-04-01T20:58:29.884Z,8.33
2023-04-01T21:01:07.572Z,8.28
2023-04-01T21:03:52.526Z,8.27
2023-04-01T21:06:29.120Z,8.28
2023-04-01T21:09:07.808Z,8.28
2023-04-01T21:11:46.393Z,8.30
2023-04-01T21:15:00.219Z,8.24
2023-04-01T21:18:00.607Z,8.30
2023-04-01T21:21:08.646Z,8.28
2023-04-01T21:23:43.912Z,8.28
2023-04-01T21:26:27.932Z,8.19
2023-04-01T21:29:28.054Z,8.20
2023-04-01T21:32:15.852Z,8.25
2023-04-01T21:34:59.478Z,8.22
2023-04-01T21:37:34.351Z,8.25
2023-04-01T21:40:16.349Z,8.23
2023-04-01T21:42:45.680Z,8.21
2023-04-01T21:45:50.086Z,8.19
2023-04-01T21:48:31.333Z,8.14
2023-04-01T21:51:21.738Z,8.17
2023-04-01T21:54:26.085Z,8.19
2023-04-01T21:57:20.372Z,8.17
2023-04-01T22:00:14.030Z,8.13
2023-04-01T22:02:58.737Z,8.13
2023-04-01T22:05:38.561Z,8.11
2023-04-01T22:08:16.851Z,8.13
2023-04-01T22:11:13.641Z,8.13
2023-04-01T22:13:50.568Z,8.15
2023-04-01T22:16:44.496Z,8.18
2023-04-01T22:19:29.630Z,8.19
2023-04-01T22:22:09.971Z,8.15
2023-04-01T22:25:07.132Z,8.16
2023-04-01T22:27:54.134Z,8.14
2023-04-01T22:30:47.524Z,8.20
2023-04-01T22:33:35.399Z,8.16
2023-04-01T22:36:11.122Z,8.24
2023-04-01T22:38:59.188Z,8.19
2023-04-01T22:41:37.558Z,8.18
2023-04-01T22:44:04.162Z,8.16
2023-04-01T22:47:05.511Z,8.13
2023-04-01T22:49:47.102Z,8.13
2023-04-01T22:52:45.321Z,8.15
2023-04-01T22:55:25.134Z,8.12
2023-04-01T22:57:54.841Z,8.09
2023-04-01T23:00:37.252Z,8.01
2023-04-01T23:03:16.175Z,7.99
2023-04-01T23:06:16.504Z,7.94
2023-04-01T23:08:53.892Z,7.96
2023-04-01T23:11:27.906Z,7.90
2023-04-01T23:14:29.332Z,7.90
2023-04-01T23:17:27.862Z,7.88
2023-04-01T23:20:06.977Z,7.90
2023-04-01T23:22:44.353Z,7.85
2023-04-01T23:25:23.715Z,7.89
2023-04-01T23:28:07.031Z,7.89
2023-04-01T23:30:39.525Z,7.89
2023-04-01T23:33:21.173Z,7.88
2023-04-01T23:35:53.187Z,7.91
2023-04-01T23:38:25.058Z,7.91
2023-04-01T23:40:54.349Z,7.87
2023-04-01T23:43:32.185Z,7.84
2023-04-01T23:46:04.629Z,7.82
2023-04-01T23:48:39.034Z,7.82
2023-04-01T23:51:14.695Z,7.77
2023-04-01T23:53:45.531Z,7.76
2023-04-01T23:56:12.308Z,7.82
2023-04-01T23:58:47.612Z,7.82
